Flight Track Log - Related Links

Times and Time Zones

All times are in EDT time to prevent confusion due to time zone crossing. See the VH-VJE flight status page for this flight to view local times or setup timezone preferences in your user account.

Time Position Orientation Groundspeed Altitude Reporting Facility
EDT Latitude Longitude Course Direction KTS MPH feet Rate Location/Type
Mon 02:14:29 AM -26.7982 150.6580 95° East 150 173 3,200  Level Aus ATC (RADAR)
Mon 02:15:35 AM -26.8026 150.7188 95° East 160 184 5,400 2,020 Climbing Aus ATC (RADAR)
Mon 02:16:10 AM -26.8044 150.7487 94° East 165 190 6,600 1,600 Climbing Aus ATC (RADAR)
Mon 02:17:05 AM -26.8157 150.7991 104° East 189 217 7,800 1,296 Climbing Aus ATC (RADAR)
Mon 02:18:15 AM -26.8369 150.8652 110° East 194 223 9,300 918 Climbing Aus ATC (RADAR)
Mon 02:18:30 AM -26.8411 150.8810 107° East 202 232 9,100 -327 Descending Aus ATC (RADAR)
Mon 02:19:10 AM -26.8508 150.9304 102° East 232 267 9,000 -60 Descending Aus ATC (RADAR)
Mon 02:20:10 AM -26.8697 150.9991 107° East 230 265 9,000  Level Aus ATC (RADAR)
Mon 02:20:45 AM -26.8807 151.0387 107° East 226 260 9,000  Level Aus ATC (RADAR)
Mon 02:21:35 AM -26.9006 151.0939 112° Southeast 231 266 9,000  Level Aus ATC (RADAR)
Mon 02:22:09 AM -26.9228 151.1272 127° Southeast 226 260 9,000 58 Level Aus ATC (RADAR)
Mon 02:23:19 AM -26.9633 151.1967 123° Southeast 225 259 9,100 71 Climbing Aus ATC (RADAR)
Mon 02:23:34 AM -26.9716 151.2113 123° Southeast 223 257 9,100 -109 Level Aus ATC (RADAR)
Mon 02:24:14 AM -26.9940 151.2511 122° Southeast 223 257 9,000  Descending Aus ATC (RADAR)
Mon 02:25:14 AM -27.0022 151.3226 97° East 236 272 9,100  Climbing Aus ATC (RADAR)
Mon 02:25:49 AM -27.0033 151.3645 92° East 229 264 9,000 -63 Descending Aus ATC (RADAR)
Mon 02:26:49 AM -27.0034 151.4369 90° East 231 266 9,000  Level Aus ATC (RADAR)
Mon 02:27:24 AM -27.0044 151.4793 92° East 232 267 9,000  Level Aus ATC (RADAR)
Mon 02:28:24 AM -27.0136 151.5511 98° East 234 269 9,000  Level Aus ATC (RADAR)
Mon 02:28:44 AM -27.0192 151.5740 105° East 230 265 9,000  Level Aus ATC (RADAR)
Mon 02:29:19 AM -27.0298 151.6142 107° East 229 264 9,000 -67 Level Aus ATC (RADAR)
Mon 02:30:14 AM -27.0473 151.6776 107° East 230 265 8,900  Descending Aus ATC (RADAR)
Mon 02:30:54 AM -27.0601 151.7234 107° East 230 265 9,000 63 Climbing Aus ATC (RADAR)
Mon 02:31:49 AM -27.0767 151.7873 106° East 230 265 9,000  Level Aus ATC (RADAR)
Mon 02:32:23 AM -27.0862 151.8286 104° East 233 268 9,000 55 Level Aus ATC (RADAR)
Mon 02:32:38 AM -27.0880 151.8390 104° East 9,100 80 Climbing FlightAware ADS-B
Mon 02:33:38 AM -27.1080 151.9140 107° East 229 264 9,100  Level FlightAware ADS-B
Mon 02:34:03 AM -27.1157 151.9456 107° East 230 265 9,100 -92 Level Aus ATC (RADAR)
Mon 02:34:43 AM -27.1281 151.9928 106° East 235 270 9,000 -71 Descending Aus ATC (RADAR)
Mon 02:35:28 AM -27.1404 152.0462 105° East 234 269 9,000 100 Level Aus ATC (RADAR)
Mon 02:35:43 AM -27.1420 152.0530 105° East 226 260 9,100  Climbing FlightAware ADS-B
Mon 02:36:03 AM -27.1502 152.0873 105° East 232 267 9,000 -150 Descending Aus ATC (RADAR)
Mon 02:36:23 AM -27.1550 152.1060 105° East 230 265 9,000  Level FlightAware ADS-B
Mon 02:36:38 AM -27.1600 152.1230 108° East 229 264 9,000 150 Level FlightAware ADS-B
Mon 02:37:03 AM -27.1696 152.1579 108° East 232 267 9,100 480 Climbing Aus ATC (RADAR)
Mon 02:37:03 AM -27.1700 152.1530 108° East 225 259 9,200  Climbing FlightAware ADS-B
Mon 02:37:33 AM -27.1820 152.1860 112° Southeast 230 265 9,100 -100 Descending FlightAware ADS-B
Mon 02:38:03 AM -27.1910 152.2220 106° East 230 265 9,100  Level FlightAware ADS-B
Mon 02:38:28 AM -27.1970 152.2510 103° East 227 261 9,100  Level FlightAware ADS-B
Mon 02:38:58 AM -27.2040 152.2870 102° East 226 260 9,100 -133 Level FlightAware ADS-B
Mon 02:39:13 AM -27.2087 152.3101 102° East 229 264 9,000  Descending Aus ATC (RADAR)
Mon 02:39:23 AM -27.2110 152.3160 102° East 229 264 9,100 480 Climbing FlightAware ADS-B
Mon 02:39:38 AM -27.2160 152.3320 109° East 228 262 9,200  Climbing FlightAware ADS-B
Mon 02:40:08 AM -27.2260 152.3650 109° East 228 262 9,100 -133 Descending FlightAware ADS-B
Mon 02:40:23 AM -27.2320 152.3860 108° East 231 266 9,100  Level FlightAware ADS-B
Mon 02:40:48 AM -27.2390 152.4140 106° East 233 268 9,100 -300 Level FlightAware ADS-B
Mon 02:41:03 AM -27.2420 152.4330 100° East 234 269 8,900 -750 Descending FlightAware ADS-B
Mon 02:41:28 AM -27.2490 152.4686 100° East 230 265 8,600 -400 Descending Aus ATC (RADAR)
Mon 02:41:33 AM -27.2480 152.4670 100° East 227 261 8,700  Climbing FlightAware ADS-B
Mon 02:41:43 AM -27.2510 152.4810 104° East 228 262 8,600 -600 Descending FlightAware ADS-B
Mon 02:42:13 AM -27.2560 152.5170 99° East 226 260 8,300 -500 Descending FlightAware ADS-B
Mon 02:42:43 AM -27.2610 152.5510 99° East 223 257 8,100 -655 Descending FlightAware ADS-B
Mon 02:43:08 AM -27.2660 152.5810 101° East 222 255 7,700 -750 Descending FlightAware ADS-B
Mon 02:43:23 AM -27.2700 152.5980 105° East 218 251 7,600 -533 Descending FlightAware ADS-B
Mon 02:43:53 AM -27.2780 152.6300 106° East 217 250 7,300 -655 Descending FlightAware ADS-B
Mon 02:44:18 AM -27.2860 152.6570 108° East 218 251 7,000 -600 Descending FlightAware ADS-B
Mon 02:44:33 AM -27.2900 152.6750 104° East 217 250 6,900 -600 Descending FlightAware ADS-B
Mon 02:44:48 AM -27.2920 152.6890 99° East 217 250 6,700 -800 Descending FlightAware ADS-B
Mon 02:45:03 AM -27.2920 152.7080 90° East 217 250 6,500 -900 Descending FlightAware ADS-B
Mon 02:45:28 AM -27.2900 152.7370 86° East 219 252 6,100 -873 Descending FlightAware ADS-B
Mon 02:45:58 AM -27.2880 152.7700 86° East 209 241 5,700 -933 Descending FlightAware ADS-B
Mon 02:46:13 AM -27.2880 152.7870 90° East 211 243 5,400 -1,000 Descending FlightAware ADS-B
Mon 02:46:28 AM -27.2870 152.8030 86° East 204 235 5,200 -686 Descending FlightAware ADS-B
Mon 02:46:48 AM -27.2870 152.8230 90° East 200 230 5,000 -857 Descending FlightAware ADS-B
Mon 02:47:17 AM -27.2889 152.8590 90° East 192 221 4,500 -686 Descending Aus ATC (RADAR)
Mon 02:47:23 AM -27.2890 152.8610 90° East 199 229 4,600 -286 Climbing FlightAware ADS-B
Mon 02:47:38 AM -27.2900 152.8760 94° East 198 228 4,400 -600 Descending FlightAware ADS-B
Mon 02:48:03 AM -27.2920 152.9020 95° East 195 224 4,200 -655 Descending FlightAware ADS-B
Mon 02:48:33 AM -27.2940 152.9320 94° East 197 227 3,800 -800 Descending FlightAware ADS-B
Mon 02:48:48 AM -27.2950 152.9470 94° East 195 224 3,600 -600 Descending FlightAware ADS-B
Mon 02:49:13 AM -27.2960 152.9700 93° East 196 226 3,400 -655 Descending FlightAware ADS-B
Mon 02:49:43 AM -27.2980 153.0020 94° East 195 224 3,000 -764 Descending FlightAware ADS-B
Mon 02:50:08 AM -27.3000 153.0270 95° East 195 224 2,700 -873 Descending FlightAware ADS-B
Mon 02:50:38 AM -27.3030 153.0550 97° East 179 206 2,200 -1,000 Descending FlightAware ADS-B
Mon 02:51:08 AM -27.3070 153.0820 99° East 153 176 1,700 -900 Descending FlightAware ADS-B
Mon 02:51:18 AM -27.3100 153.0880 119° Southeast 141 162 1,600 -960 Descending FlightAware ADS-B
Mon 02:51:33 AM -27.3170 153.0950 138° Southeast 130 150 1,300 -1,067 Descending FlightAware ADS-B
Mon 02:52:03 AM -27.3320 153.1060 147° Southeast 120 138 800 -933 Descending FlightAware ADS-B
Mon 02:52:18 AM -27.3390 153.1110 148° Southeast 117 135 600 -750 Descending FlightAware ADS-B
Mon 02:52:43 AM -27.3490 153.1190 145° Southeast 109 125 300 -732 Descending FlightAware ADS-B
Mon 02:52:59 AM -27.3548 153.1235 145° Southeast 107 123 100 -750 Descending Aus ATC (RADAR)
Mon 02:53:13 AM -27.3610 153.1280 145° Southeast 78 90 -429 Descending FlightAware ADS-B
Mon 02:53:28 AM -27.3640 153.1310 138° Southeast 51 59  Level FlightAware ADS-B
Mon 02:53:53 AM -27.3680 153.1330 156° South 27 31  Level FlightAware ADS-B
Mon 02:54:08 AM -27.3690 153.1340 138° Southeast 18 21  Level FlightAware ADS-B
Mon 02:54:23 AM -27.3700 153.1330 222° Southwest 19 22  Level FlightAware ADS-B
Mon 02:54:38 AM -27.3710 153.1330 180° South 18 21  Level FlightAware ADS-B
Mon 02:55:03 AM -27.3730 153.1320 204° Southwest 19 22  Level FlightAware ADS-B
Mon 02:55:33 AM -27.3760 153.1300 211° Southwest 23 26  Level FlightAware ADS-B
Mon 02:55:48 AM -27.3770 153.1290 222° Southwest 23 26  Level FlightAware ADS-B

Login

Don't have an account? Register now (free) for customized features, flight alerts, and more!